Time;durP1;ratioP1;P1;durP2;ratioP2;P2;SDS_P1;SDS_P2;PMS_P1;PMS_P2;Temp;Humidity;BMP_temperature;BMP_pressure;BME280_temperature;BME280_humidity;BME280_pressure;Samples;Min_cycle;Max_cycle;Signal;HPM_P1;HPM_P2
2021/09/14 00:01:32;;;;;;;;;;;;;;;16.05;100.00;99102.13;5093229;28;19924;-79
2021/09/14 00:03:59;;;;;;;;;;;;;;;16.27;100.00;99096.47;5075049;28;19958;-79
2021/09/14 00:06:26;;;;;;;;;;;;;;;15.99;100.00;99098.31;5074975;28;20386;-79
2021/09/14 00:08:54;;;;;;;;;;;;;;;16.31;100.00;99106.38;5092274;28;20279;-79
2021/09/14 00:11:21;;;;;;;;;;;;;;;16.41;100.00;99101.53;5093011;28;20022;-79
2021/09/14 00:13:48;;;;;;;;;;;;;;;16.38;100.00;99096.84;5093288;28;20280;-79
2021/09/14 00:16:15;;;;;;;;;;;;;;;16.54;100.00;99093.84;5092979;28;19924;-79
2021/09/14 00:18:42;;;;;;;;;;;;;;;16.06;100.00;99087.56;5094224;28;19924;-79
2021/09/14 00:21:11;;;;;;;;;;;;;;;16.27;100.00;99079.56;5078771;28;19924;-79
2021/09/14 00:23:38;;;;;;;;;;;;;;;16.13;100.00;99081.66;5096404;28;20643;-79
2021/09/14 00:26:05;;;;;;;;;;;;;;;15.98;100.00;99077.81;5096632;28;20391;-79
2021/09/14 00:28:32;;;;;;;;;;;;;;;15.99;100.00;99085.00;5095546;28;20360;-79
2021/09/14 00:30:59;;;;;;;;;;;;;;;15.81;100.00;99076.44;5078448;28;19952;-79
2021/09/14 00:33:25;;;;;;;;;;;;;;;15.80;100.00;99077.69;5096607;28;19935;-79
2021/09/14 00:36:06;;;;;;;;;;;;;;;15.57;100.00;99088.63;5080363;28;19935;-79
2021/09/14 00:38:33;;;;;;;;;;;;;;;15.79;100.00;99084.56;5078020;28;19931;-79
2021/09/14 00:41:00;;;;;;;;;;;;;;;15.65;100.00;99082.25;5078225;28;20351;-79
2021/09/14 00:43:27;;;;;;;;;;;;;;;15.85;100.00;99082.72;5078426;28;19924;-79
2021/09/14 00:45:54;;;;;;;;;;;;;;;16.00;100.00;99078.13;5078208;28;19924;-79
2021/09/14 00:48:21;;;;;;;;;;;;;;;15.80;100.00;99068.44;5078333;28;20031;-79
2021/09/14 00:50:48;;;;;;;;;;;;;;;16.27;100.00;99068.28;5084401;28;19955;-79
2021/09/14 00:53:15;;;;;;;;;;;;;;;15.99;100.00;99064.50;5081994;28;20261;-79
2021/09/14 00:55:42;;;;;;;;;;;;;;;16.16;100.00;99063.81;5061543;28;19935;-79
2021/09/14 00:58:11;;;;;;;;;;;;;;;16.17;100.00;99064.63;5096031;28;20022;-79
2021/09/14 01:00:41;;;;;;;;;;;;;;;16.38;100.00;99065.81;5077830;28;19931;-79
2021/09/14 01:03:08;;;;;;;;;;;;;;;16.43;100.00;99057.56;5094907;28;19932;-78
2021/09/14 01:05:35;;;;;;;;;;;;;;;16.42;100.00;99055.19;5061133;28;19982;-79
2021/09/14 01:08:03;;;;;;;;;;;;;;;16.53;100.00;99049.94;5077587;28;19931;-79
2021/09/14 01:10:30;;;;;;;;;;;;;;;16.48;100.00;99044.91;5095957;28;20355;-79
2021/09/14 01:12:57;;;;;;;;;;;;;;;16.51;100.00;99046.81;5095482;28;19928;-79
2021/09/14 01:15:25;;;;;;;;;;;;;;;16.38;100.00;99046.06;5061225;28;19932;-79
2021/09/14 01:17:52;;;;;;;;;;;;;;;16.14;100.00;99034.53;5094565;28;20268;-79
2021/09/14 01:20:19;;;;;;;;;;;;;;;15.95;100.00;99036.47;5094156;28;19977;-79
2021/09/14 01:22:47;;;;;;;;;;;;;;;16.06;100.00;99031.22;5094279;28;19924;-79
2021/09/14 01:25:15;;;;;;;;;;;;;;;16.27;100.00;99023.19;5060885;28;20004;-79
2021/09/14 01:27:43;;;;;;;;;;;;;;;16.19;100.00;99026.25;5077378;28;20007;-79
2021/09/14 01:30:22;;;;;;;;;;;;;;;16.14;100.00;99026.88;5077467;28;20013;-79
2021/09/14 01:32:51;;;;;;;;;;;;;;;16.22;100.00;99028.16;5094036;28;20061;-79
2021/09/14 01:35:22;;;;;;;;;;;;;;;16.31;100.00;99018.16;5077286;28;19931;-79
2021/09/14 01:37:53;;;;;;;;;;;;;;;16.21;100.00;99020.94;5077827;28;19924;-79
2021/09/14 01:40:22;;;;;;;;;;;;;;;16.30;100.00;99016.63;5077272;28;20026;-79
2021/09/14 01:42:53;;;;;;;;;;;;;;;16.30;100.00;99022.25;5093824;28;19931;-79
2021/09/14 01:45:20;;;;;;;;;;;;;;;16.19;100.00;99019.84;5094035;28;19955;-79
2021/09/14 01:47:47;;;;;;;;;;;;;;;16.30;100.00;99016.63;5076999;28;20393;-79
2021/09/14 01:50:16;;;;;;;;;;;;;;;16.34;100.00;99014.44;5076899;28;19966;-79
2021/09/14 01:52:44;;;;;;;;;;;;;;;16.41;100.00;99011.31;5076567;28;19924;-79
2021/09/14 01:55:13;;;;;;;;;;;;;;;16.41;100.00;99014.13;5076812;28;20031;-79
2021/09/14 01:57:43;;;;;;;;;;;;;;;16.46;100.00;99003.09;5076792;28;19957;-79
2021/09/14 02:00:20;;;;;;;;;;;;;;;16.44;100.00;99004.78;5043586;28;19931;-79
2021/09/14 03:00:00;;;;;;;;;;;;;;;16.00;100.00;98962.59;5093653;28;19924;-78
2021/09/14 03:02:28;;;;;;;;;;;;;;;16.05;100.00;98956.34;5060214;28;19975;-78
2021/09/14 03:04:55;;;;;;;;;;;;;;;16.01;100.00;98950.06;5077471;28;19924;-78
2021/09/14 03:07:23;;;;;;;;;;;;;;;16.12;100.00;98955.28;5055442;28;19924;-78
2021/09/14 03:09:50;;;;;;;;;;;;;;;16.09;100.00;98957.00;5055443;28;19939;-78
2021/09/14 03:12:17;;;;;;;;;;;;;;;16.33;100.00;98953.66;5055525;28;20485;-78
2021/09/14 03:14:49;;;;;;;;;;;;;;;16.23;100.00;98952.84;5070785;28;19928;-78
2021/09/14 03:17:16;;;;;;;;;;;;;;;15.91;100.00;98945.66;5075277;28;19924;-78
2021/09/14 03:19:43;;;;;;;;;;;;;;;16.00;100.00;98956.97;5085495;28;19928;-78
2021/09/14 03:22:12;;;;;;;;;;;;;;;15.95;100.00;98954.75;5075486;28;20291;-78
2021/09/14 03:24:39;;;;;;;;;;;;;;;15.99;100.00;98961.00;5092324;28;20019;-78
2021/09/14 03:27:07;;;;;;;;;;;;;;;16.27;100.00;98944.25;5075256;28;19928;-78
2021/09/14 03:29:34;;;;;;;;;;;;;;;16.53;100.00;98954.84;5075569;28;20303;-78
2021/09/14 03:32:02;;;;;;;;;;;;;;;16.67;100.00;98957.06;5075192;28;19924;-79
2021/09/14 03:34:29;;;;;;;;;;;;;;;16.80;100.00;98959.75;5075347;28;19924;-79
2021/09/14 03:36:56;;;;;;;;;;;;;;;16.87;100.00;98948.97;5075378;28;20022;-79
2021/09/14 03:39:24;;;;;;;;;;;;;;;16.91;100.00;98941.13;5076810;28;20361;-78
2021/09/14 03:41:53;;;;;;;;;;;;;;;16.83;100.00;98941.88;5074082;28;19931;-79
2021/09/14 03:44:20;;;;;;;;;;;;;;;16.89;100.00;98940.78;5075007;28;19924;-79
2021/09/14 03:46:47;;;;;;;;;;;;;;;16.95;100.00;98943.78;5074956;28;19924;-79
2021/09/14 03:49:14;;;;;;;;;;;;;;;16.84;100.00;98943.47;5075059;28;19924;-79
2021/09/14 03:51:42;;;;;;;;;;;;;;;16.79;100.00;98941.25;5075197;28;19924;-79
2021/09/14 03:54:09;;;;;;;;;;;;;;;16.78;100.00;98934.03;5060814;28;20022;-79
2021/09/14 03:56:37;;;;;;;;;;;;;;;16.81;100.00;98936.69;5079173;28;19928;-78
2021/09/14 03:59:05;;;;;;;;;;;;;;;16.80;100.00;98937.16;5065167;28;19946;-79
2021/09/14 04:01:39;;;;;;;;;;;;;;;16.82;100.00;98935.47;5049485;28;19935;-79
2021/09/14 04:04:16;;;;;;;;;;;;;;;16.95;100.00;98929.69;5062229;28;19936;-79
2021/09/14 04:09:21;;;;;;;;;;;;;;;16.74;100.00;98927.75;5079146;28;20348;-79
2021/09/14 04:11:52;;;;;;;;;;;;;;;16.79;100.00;98929.97;5062568;28;19924;-79
2021/09/14 04:14:25;;;;;;;;;;;;;;;16.91;100.00;98927.00;5078462;28;19947;-78
2021/09/14 04:16:52;;;;;;;;;;;;;;;17.00;100.00;98924.19;5078802;28;20009;-79
2021/09/14 04:19:20;;;;;;;;;;;;;;;16.97;100.00;98921.50;5078567;28;20010;-78
2021/09/14 04:21:48;;;;;;;;;;;;;;;16.87;100.00;98922.78;5078953;28;19931;-78
2021/09/14 04:24:19;;;;;;;;;;;;;;;16.89;100.00;98923.09;5078655;28;19927;-78
2021/09/14 04:26:47;;;;;;;;;;;;;;;17.02;100.00;98909.59;5061925;28;19928;-79
2021/09/14 04:29:14;;;;;;;;;;;;;;;17.07;100.00;98909.75;5078603;28;20065;-79
2021/09/14 04:31:42;;;;;;;;;;;;;;;17.17;100.00;98913.38;5078337;28;20275;-79
2021/09/14 04:34:09;;;;;;;;;;;;;;;17.19;100.00;98919.31;5045064;28;19924;-79
2021/09/14 04:36:36;;;;;;;;;;;;;;;17.12;100.00;98909.13;5078569;28;19933;-79
2021/09/14 04:39:08;;;;;;;;;;;;;;;17.15;100.00;98919.47;5078625;28;20068;-78
2021/09/14 04:41:35;;;;;;;;;;;;;;;17.15;100.00;98910.22;5061678;28;20272;-79
2021/09/14 04:44:03;;;;;;;;;;;;;;;17.23;100.00;98912.28;5061836;28;19928;-79
2021/09/14 04:46:30;;;;;;;;;;;;;;;17.12;100.00;98911.16;5078071;28;19924;-79
2021/09/14 04:48:57;;;;;;;;;;;;;;;17.22;100.00;98912.75;5078206;28;19924;-79
2021/09/14 04:51:24;;;;;;;;;;;;;;;17.12;100.00;98917.59;5078002;28;20290;-80
2021/09/14 04:53:52;;;;;;;;;;;;;;;17.19;100.00;98920.09;5078432;28;20034;-80
2021/09/14 04:56:19;;;;;;;;;;;;;;;17.19;100.00;98919.31;5074668;28;20292;-80
2021/09/14 04:58:49;;;;;;;;;;;;;;;17.11;100.00;98920.91;5074597;28;20387;-80
2021/09/14 05:01:17;;;;;;;;;;;;;;;17.14;100.00;98922.78;5077958;28;20291;-86
2021/09/14 05:03:44;;;;;;;;;;;;;;;17.21;100.00;98923.25;5044302;28;19924;-83
2021/09/14 05:06:12;;;;;;;;;;;;;;;17.11;100.00;98924.50;5074492;28;19928;-83
2021/09/14 05:08:39;;;;;;;;;;;;;;;16.99;100.00;98931.09;5067464;28;20015;-83
2021/09/14 05:11:07;;;;;;;;;;;;;;;17.04;100.00;98930.44;5072919;28;19978;-83
2021/09/14 05:13:38;;;;;;;;;;;;;;;16.94;100.00;98925.28;5052771;28;20439;-82
2021/09/14 05:16:31;;;;;;;;;;;;;;;17.11;100.00;98909.59;5073160;28;20370;-81
2021/09/14 05:19:09;;;;;;;;;;;;;;;17.14;100.00;98906.63;5061305;28;20298;-81
2021/09/14 05:21:47;;;;;;;;;;;;;;;17.18;100.00;98907.25;5076593;28;19936;-81
2021/09/14 05:24:14;;;;;;;;;;;;;;;16.95;100.00;98907.09;5058352;28;19931;-81
2021/09/14 05:26:41;;;;;;;;;;;;;;;17.18;100.00;98906.44;5058073;28;19932;-81
2021/09/14 05:29:08;;;;;;;;;;;;;;;17.17;100.00;98916.19;5057762;28;20299;-81
2021/09/14 05:31:35;;;;;;;;;;;;;;;17.04;100.00;98909.94;5074863;28;19924;-81
2021/09/14 05:34:03;;;;;;;;;;;;;;;17.08;100.00;98919.00;5058275;28;19924;-81
2021/09/14 05:36:30;;;;;;;;;;;;;;;17.17;100.00;98916.19;5093924;28;19932;-81
2021/09/14 05:38:58;;;;;;;;;;;;;;;17.24;100.00;98915.84;5076490;28;19931;-81
2021/09/14 05:41:25;;;;;;;;;;;;;;;17.15;100.00;98913.84;5069416;28;20272;-81
2021/09/14 05:43:53;;;;;;;;;;;;;;;17.04;100.00;98913.50;5074537;28;20295;-81
2021/09/14 05:46:21;;;;;;;;;;;;;;;17.04;100.00;98907.09;5067395;28;19928;-81
2021/09/14 05:48:48;;;;;;;;;;;;;;;16.96;100.00;98911.50;5076179;28;19932;-81
2021/09/14 05:51:15;;;;;;;;;;;;;;;16.98;100.00;98914.63;5076174;28;19924;-81
2021/09/14 05:53:53;;;;;;;;;;;;;;;17.01;100.00;98905.22;5061200;28;19947;-81
2021/09/14 05:56:21;;;;;;;;;;;;;;;16.96;100.00;98909.47;5059147;28;20326;-81
2021/09/14 05:58:48;;;;;;;;;;;;;;;17.00;100.00;98912.91;5045635;28;19932;-81
2021/09/14 06:01:17;;;;;;;;;;;;;;;16.67;100.00;98922.44;5083626;28;19928;-81
2021/09/14 06:03:47;;;;;;;;;;;;;;;17.03;100.00;98922.44;5092789;28;20001;-81
2021/09/14 06:06:14;;;;;;;;;;;;;;;17.08;100.00;98925.44;5042884;28;19924;-81
2021/09/14 06:08:42;;;;;;;;;;;;;;;17.02;100.00;98926.53;5058927;28;19928;-81
2021/09/14 06:11:10;;;;;;;;;;;;;;;17.04;100.00;98921.97;5058978;28;19931;-82
2021/09/14 06:13:37;;;;;;;;;;;;;;;16.81;100.00;98933.13;5075550;28;19928;-82
2021/09/14 06:16:05;;;;;;;;;;;;;;;16.98;100.00;98926.69;5074810;28;19925;-83
2021/09/14 06:18:34;;;;;;;;;;;;;;;17.10;100.00;98930.63;5064097;28;19932;-82
2021/09/14 06:21:03;;;;;;;;;;;;;;;17.09;100.00;98927.00;5075747;28;19931;-82
2021/09/14 06:23:30;;;;;;;;;;;;;;;17.04;100.00;98935.34;5061983;28;19933;-82
2021/09/14 06:26:03;;;;;;;;;;;;;;;17.05;100.00;98934.88;5042822;28;19931;-83
2021/09/14 06:28:30;;;;;;;;;;;;;;;16.96;100.00;98928.41;5051753;28;19925;-82
2021/09/14 06:30:58;;;;;;;;;;;;;;;17.05;100.00;98932.03;5042166;28;20371;-82
2021/09/14 06:33:30;;;;;;;;;;;;;;;16.92;100.00;98934.22;5074208;28;19925;-82
2021/09/14 06:35:57;;;;;;;;;;;;;;;17.03;100.00;98933.75;5059529;28;20425;-82
2021/09/14 06:38:29;;;;;;;;;;;;;;;16.96;100.00;98929.22;5068886;28;19970;-82
2021/09/14 06:40:56;;;;;;;;;;;;;;;17.15;100.00;98929.97;5077356;28;20001;-82
2021/09/14 06:43:29;;;;;;;;;;;;;;;16.95;100.00;98927.63;5108646;28;19924;-83
2021/09/14 06:46:08;;;;;;;;;;;;;;;16.99;100.00;98931.09;5059785;28;19928;-83
2021/09/14 06:48:42;;;;;;;;;;;;;;;16.85;100.00;98933.72;5087771;28;19928;-82
2021/09/14 06:51:09;;;;;;;;;;;;;;;16.61;100.00;98938.41;5060094;28;19962;-83
2021/09/14 06:53:36;;;;;;;;;;;;;;;16.86;100.00;98946.56;5073795;28;20307;-83
2021/09/14 06:56:04;;;;;;;;;;;;;;;16.91;100.00;98948.78;5094134;28;19932;-83
2021/09/14 06:58:37;;;;;;;;;;;;;;;16.95;100.00;98949.44;5045391;28;19924;-83
2021/09/14 07:01:05;;;;;;;;;;;;;;;17.13;100.00;98957.91;5085904;28;19946;-83
2021/09/14 07:03:32;;;;;;;;;;;;;;;17.01;100.00;98964.50;5076612;28;19950;-83
2021/09/14 07:06:00;;;;;;;;;;;;;;;17.06;100.00;98966.69;5076329;28;20069;-83
2021/09/14 07:08:27;;;;;;;;;;;;;;;17.23;100.00;98959.47;5075839;28;20366;-80
2021/09/14 07:10:54;;;;;;;;;;;;;;;17.27;100.00;98954.44;5076084;28;19981;-84
2021/09/14 07:13:21;;;;;;;;;;;;;;;17.37;100.00;98953.19;5042889;28;19928;-83
2021/09/14 07:15:48;;;;;;;;;;;;;;;17.33;100.00;98952.56;5069749;28;19932;-84
2021/09/14 07:18:16;;;;;;;;;;;;;;;17.31;100.00;98957.91;5074182;28;19924;-83
2021/09/14 07:20:43;;;;;;;;;;;;;;;17.33;100.00;98952.56;5074569;28;20058;-83
2021/09/14 07:23:10;;;;;;;;;;;;;;;17.38;100.00;98955.56;5059165;28;19924;-83
2021/09/14 07:25:40;;;;;;;;;;;;;;;17.08;100.00;98961.34;5073152;28;19939;-83
2021/09/14 07:28:08;;;;;;;;;;;;;;;17.49;100.00;98960.75;5073615;28;19924;-84
2021/09/14 07:30:36;;;;;;;;;;;;;;;17.48;100.00;98947.88;5057727;28;19924;-81
2021/09/14 07:33:04;;;;;;;;;;;;;;;17.52;100.00;98959.81;5075677;28;19973;-83
2021/09/14 07:35:32;;;;;;;;;;;;;;;17.34;100.00;98954.91;5079429;28;19925;-83
2021/09/14 07:37:59;;;;;;;;;;;;;;;17.36;100.00;98957.25;5072530;28;19928;-83
2021/09/14 07:40:26;;;;;;;;;;;;;;;17.49;100.00;98950.22;5058792;28;20026;-83
2021/09/14 07:42:55;;;;;;;;;;;;;;;17.52;100.00;98945.69;5072092;28;19924;-83
2021/09/14 07:45:22;;;;;;;;;;;;;;;17.61;100.00;98932.34;5075361;28;19932;-83
2021/09/14 07:47:49;;;;;;;;;;;;;;;17.57;100.00;98925.25;5041746;28;19924;-83
2021/09/14 07:50:17;;;;;;;;;;;;;;;17.61;100.00;98929.50;5056693;28;19924;-83
2021/09/14 07:52:44;;;;;;;;;;;;;;;17.54;100.00;98924.16;5075091;28;19947;-84
2021/09/14 07:55:11;;;;;;;;;;;;;;;17.59;100.00;98917.09;5056081;28;20053;-84
2021/09/14 07:57:38;;;;;;;;;;;;;;;17.52;100.00;98906.91;5075245;28;19928;-84
2021/09/14 08:00:05;;;;;;;;;;;;;;;17.45;100.00;98903.63;5090005;28;20410;-84
2021/09/14 08:02:37;;;;;;;;;;;;;;;17.46;100.00;98896.72;5070386;28;20034;-84
2021/09/14 08:05:05;;;;;;;;;;;;;;;16.94;100.00;98902.69;5069889;28;20013;-84
2021/09/14 08:07:32;;;;;;;;;;;;;;;16.36;100.00;98904.78;5074210;28;20371;-80
2021/09/14 08:09:59;;;;;;;;;;;;;;;16.75;100.00;98918.06;5091579;28;19932;-80
2021/09/14 08:12:26;;;;;;;;;;;;;;;16.93;100.00;98916.03;5084529;28;19963;-80
2021/09/14 08:14:53;;;;;;;;;;;;;;;16.90;100.00;98902.88;5083751;28;19924;-80
2021/09/14 08:17:20;;;;;;;;;;;;;;;16.94;100.00;98895.03;5091637;28;20009;-86
2021/09/14 08:19:48;;;;;;;;;;;;;;;17.19;100.00;98899.56;5058030;28;20004;-86
2021/09/14 08:22:15;;;;;;;;;;;;;;;17.46;100.00;98894.66;5057960;28;20278;-86
2021/09/14 08:24:45;;;;;;;;;;;;;;;17.23;100.00;98897.34;5072037;28;19928;-86
2021/09/14 08:27:12;;;;;;;;;;;;;;;17.34;100.00;98901.25;5057595;28;19928;-86
2021/09/14 08:29:39;;;;;;;;;;;;;;;17.20;100.00;98898.31;5041825;28;20268;-86
2021/09/14 08:32:07;;;;;;;;;;;;;;;17.23;100.00;98903.00;5042478;28;19925;-91
2021/09/14 08:34:35;;;;;;;;;;;;;;;17.50;100.00;98900.16;5065421;28;20306;-90
2021/09/14 08:37:02;;;;;;;;;;;;;;;17.33;100.00;98907.38;5066477;28;20272;-91
2021/09/14 08:39:29;;;;;;;;;;;;;;;17.72;100.00;98895.09;5034766;28;20269;-91
2021/09/14 08:41:56;;;;;;;;;;;;;;;17.57;100.00;98894.97;5007358;28;19925;-91
2021/09/14 08:44:23;;;;;;;;;;;;;;;17.04;100.00;98895.81;5031310;28;19931;-91
2021/09/14 08:46:50;;;;;;;;;;;;;;;17.28;100.00;98899.56;5027004;28;19947;-91
2021/09/14 08:49:17;;;;;;;;;;;;;;;17.14;100.00;98894.53;5006270;28;19931;-90
2021/09/14 08:51:44;;;;;;;;;;;;;;;17.34;100.00;98887.13;5020212;28;19925;-90
2021/09/14 08:54:11;;;;;;;;;;;;;;;17.36;100.00;98889.47;5016031;28;19924;-90
2021/09/14 08:56:39;;;;;;;;;;;;;;;17.74;100.00;98893.34;5008164;28;19931;-90
2021/09/14 08:59:06;;;;;;;;;;;;;;;17.64;100.00;98893.88;5069962;28;19924;-90
2021/09/14 09:01:33;;;;;;;;;;;;;;;17.70;100.00;98883.47;5042295;28;19932;-90
2021/09/14 09:04:05;;;;;;;;;;;;;;;17.48;100.00;98883.69;5021961;28;19931;-89
2021/09/14 09:06:34;;;;;;;;;;;;;;;17.78;100.00;98887.56;5025595;28;19924;-89
2021/09/14 09:09:09;;;;;;;;;;;;;;;17.82;100.00;98888.94;5038392;28;19931;-84
2021/09/14 09:11:36;;;;;;;;;;;;;;;17.80;100.00;98870.88;5052115;28;19924;-82
2021/09/14 09:14:05;;;;;;;;;;;;;;;18.07;100.00;98870.75;5043970;28;20379;-82
2021/09/14 09:16:32;;;;;;;;;;;;;;;17.96;100.00;98876.16;5046350;28;20406;-82
2021/09/14 09:19:00;;;;;;;;;;;;;;;18.05;100.00;98875.34;5039066;28;19928;-83
2021/09/14 09:21:38;;;;;;;;;;;;;;;18.10;100.00;98875.44;5057457;28;19931;-83
2021/09/14 09:24:08;;;;;;;;;;;;;;;17.82;100.00;98876.84;5025542;28;19931;-83
2021/09/14 09:26:39;;;;;;;;;;;;;;;17.96;100.00;98874.09;5047487;28;20284;-83
2021/09/14 09:29:08;;;;;;;;;;;;;;;18.22;100.00;98871.63;5041682;28;20032;-83
2021/09/14 09:31:37;;;;;;;;;;;;;;;18.26;100.00;98865.78;5036586;28;20023;-83
2021/09/14 09:34:05;;;;;;;;;;;;;;;18.14;100.00;98861.94;5078074;28;20252;-90
2021/09/14 09:36:34;;;;;;;;;;;;;;;17.97;100.00;98866.41;5045255;28;20397;-94
2021/09/14 09:39:03;;;;;;;;;;;;;;;17.38;100.00;98865.19;5045234;28;19930;-93
2021/09/14 09:41:38;;;;;;;;;;;;;;;17.47;100.00;98872.88;5041805;28;20403;-93
2021/09/14 09:44:09;;;;;;;;;;;;;;;17.79;100.00;98874.97;5035522;28;19924;-93
2021/09/14 09:46:36;;;;;;;;;;;;;;;17.77;100.00;98874.66;5040937;28;19960;-94
2021/09/14 09:49:06;;;;;;;;;;;;;;;17.82;100.00;98882.50;5044069;28;20007;-93
2021/09/14 09:51:34;;;;;;;;;;;;;;;17.59;100.00;98886.00;5025013;28;19932;-92
2021/09/14 09:54:02;;;;;;;;;;;;;;;17.50;100.00;98888.88;5025280;28;19930;-93
2021/09/14 09:56:32;;;;;;;;;;;;;;;17.32;100.00;98891.69;5026367;28;19947;-93
2021/09/14 09:59:01;;;;;;;;;;;;;;;17.21;100.00;98892.19;5041232;28;20003;-92
2021/09/14 10:01:29;;;;;;;;;;;;;;;17.45;100.00;98887.47;5041526;28;20268;-91
2021/09/14 10:04:17;;;;;;;;;;;;;;;17.71;100.00;98890.69;5061718;28;19930;-92
2021/09/14 10:07:05;;;;;;;;;;;;;;;17.59;100.00;98886.81;5065824;28;20286;-81
2021/09/14 10:09:55;;;;;;;;;;;;;;;17.46;100.00;98874.91;5094227;28;20013;-81
2021/09/14 10:12:41;;;;;;;;;;;;;;;17.72;100.00;98872.50;5078977;28;19931;-81
2021/09/14 10:15:35;;;;;;;;;;;;;;;17.73;100.00;98874.06;5066605;28;19982;-81
2021/09/14 10:18:25;;;;;;;;;;;;;;;17.90;100.00;98866.78;5064650;28;19947;-81
2021/09/14 10:21:17;;;;;;;;;;;;;;;17.99;100.00;98863.91;5068927;28;19976;-84
2021/09/14 10:24:03;;;;;;;;;;;;;;;18.09;100.00;98862.59;5093739;28;19973;-86
2021/09/14 10:26:49;;;;;;;;;;;;;;;17.16;100.00;98875.88;5058754;28;19947;-85
2021/09/14 10:29:35;;;;;;;;;;;;;;;17.49;100.00;98878.84;5060424;28;19947;-86
2021/09/14 10:32:20;;;;;;;;;;;;;;;17.77;100.00;98892.41;5079076;28;19932;-83
2021/09/14 10:34:53;;;;;;;;;;;;;;;17.84;100.00;98886.41;5050735;28;19932;-85
2021/09/14 10:37:21;;;;;;;;;;;;;;;17.93;100.00;98885.59;5051819;28;20402;-87
2021/09/14 10:39:48;;;;;;;;;;;;;;;17.65;100.00;98878.47;5039028;28;19962;-84
2021/09/14 10:42:15;;;;;;;;;;;;;;;17.57;100.00;98878.03;5054275;28;19929;-84
2021/09/14 10:44:42;;;;;;;;;;;;;;;17.87;100.00;98881.84;5046765;28;19924;-84
2021/09/14 10:47:11;;;;;;;;;;;;;;;17.35;100.00;98887.94;5052781;28;19977;-84
2021/09/14 10:49:42;;;;;;;;;;;;;;;17.22;100.00;98895.81;5032741;28;19924;-84
2021/09/14 10:52:09;;;;;;;;;;;;;;;17.41;100.00;98886.03;5053721;28;20375;-84
2021/09/14 10:54:43;;;;;;;;;;;;;;;17.53;100.00;98883.06;5033475;28;20335;-84
2021/09/14 10:57:11;;;;;;;;;;;;;;;17.52;100.00;98877.88;5040728;28;19924;-84
2021/09/14 10:59:46;;;;;;;;;;;;;;;17.55;100.00;98869.22;5054910;28;19947;-84
2021/09/14 11:02:14;;;;;;;;;;;;;;;17.81;100.00;98880.94;5054853;28;19924;-84
2021/09/14 11:04:42;;;;;;;;;;;;;;;17.44;100.00;98876.66;5028970;28;19925;-84
2021/09/14 11:07:10;;;;;;;;;;;;;;;17.63;100.00;98875.34;5038332;28;19924;-84
2021/09/14 11:09:38;;;;;;;;;;;;;;;17.79;100.00;98877.81;5021738;28;19935;-85
2021/09/14 11:12:05;;;;;;;;;;;;;;;18.02;100.00;98876.28;5072711;28;19978;-85
2021/09/14 11:14:34;;;;;;;;;;;;;;;18.15;100.00;98882.50;5021787;28;19931;-85
2021/09/14 11:17:02;;;;;;;;;;;;;;;17.37;100.00;98877.72;5021533;28;19925;-84
2021/09/14 11:19:29;;;;;;;;;;;;;;;17.92;100.00;98869.88;5043044;28;19929;-85
2021/09/14 11:21:57;;;;;;;;;;;;;;;18.07;100.00;98859.44;5053892;28;19932;-85
2021/09/14 11:24:24;;;;;;;;;;;;;;;18.25;100.00;98850.09;5034938;28;20011;-85
2021/09/14 11:26:52;;;;;;;;;;;;;;;18.02;100.00;98855.22;5034785;28;19944;-85
2021/09/14 11:29:20;;;;;;;;;;;;;;;18.18;100.00;98854.06;5071541;28;19924;-84
2021/09/14 11:31:47;;;;;;;;;;;;;;;17.86;100.00;98849.97;5040339;28;19925;-92
2021/09/14 11:34:17;;;;;;;;;;;;;;;18.28;100.00;98858.38;5056318;28;20015;-92
2021/09/14 11:36:47;;;;;;;;;;;;;;;18.33;100.00;98854.91;5037233;28;19952;-91
2021/09/14 11:39:14;;;;;;;;;;;;;;;18.24;100.00;98854.97;5020860;28;19979;-92
2021/09/14 11:41:43;;;;;;;;;;;;;;;18.12;100.00;98847.50;5036556;28;19928;-90
2021/09/14 11:44:12;;;;;;;;;;;;;;;18.10;100.00;98852.84;5056045;28;19931;-86
2021/09/14 11:46:48;;;;;;;;;;;;;;;18.34;100.00;98853.66;5073135;28;19924;-92
2021/09/14 11:49:16;;;;;;;;;;;;;;;18.51;100.00;98837.84;5023176;28;19936;-85
2021/09/14 11:51:43;;;;;;;;;;;;;;;18.48;100.00;98838.06;5071777;28;19925;-85
2021/09/14 11:54:34;;;;;;;;;;;;;;;18.33;100.00;98837.94;5047915;28;19935;-80
2021/09/14 11:57:21;;;;;;;;;;;;;;;18.19;100.00;98841.47;5073899;28;19935;-82
2021/09/14 11:59:48;;;;;;;;;;;;;;;18.40;100.00;98831.19;5054800;28;20011;-83
2021/09/14 12:02:16;;;;;;;;;;;;;;;18.15;100.00;98826.75;5062281;28;19930;-82
2021/09/14 12:04:43;;;;;;;;;;;;;;;18.48;100.00;98832.38;5058310;28;19925;-83
2021/09/14 12:07:20;;;;;;;;;;;;;;;18.54;100.00;98831.22;5052328;28;20028;-83
2021/09/14 12:09:47;;;;;;;;;;;;;;;18.67;100.00;98825.31;5044050;28;19924;-83
2021/09/14 12:12:14;;;;;;;;;;;;;;;18.68;100.00;98824.03;5061127;28;20290;-83
2021/09/14 12:14:42;;;;;;;;;;;;;;;18.71;100.00;98823.06;5073123;28;19925;-83
2021/09/14 12:17:10;;;;;;;;;;;;;;;19.05;100.00;98828.13;5075952;28;19928;-83
2021/09/14 12:19:38;;;;;;;;;;;;;;;19.21;100.00;98821.97;5064176;28;20300;-83
2021/09/14 12:22:06;;;;;;;;;;;;;;;19.15;100.00;98821.91;5074244;28;19932;-84
2021/09/14 12:24:33;;;;;;;;;;;;;;;19.14;100.00;98828.84;5050633;28;19959;-83
2021/09/14 12:27:00;;;;;;;;;;;;;;;18.82;100.00;98828.97;5041726;28;19929;-84
2021/09/14 12:29:27;;;;;;;;;;;;;;;18.99;100.00;98832.91;5038982;28;19924;-84
2021/09/14 12:31:54;;;;;;;;;;;;;;;18.96;100.00;98834.66;5073757;28;19932;-85
2021/09/14 12:34:21;;;;;;;;;;;;;;;18.93;100.00;98835.63;5070798;28;20003;-84
2021/09/14 12:36:50;;;;;;;;;;;;;;;18.38;100.00;98831.66;5091130;28;19930;-85
2021/09/14 12:39:20;;;;;;;;;;;;;;;19.01;100.00;98828.31;5079086;28;19928;-84
2021/09/14 12:41:48;;;;;;;;;;;;;;;19.15;100.00;98816.22;5093570;28;19924;-84
2021/09/14 12:44:15;;;;;;;;;;;;;;;19.45;100.00;98820.66;5058807;28;19924;-86
2021/09/14 12:46:42;;;;;;;;;;;;;;;19.31;100.00;98820.66;5092282;28;19924;-84
2021/09/14 12:49:10;;;;;;;;;;;;;;;19.54;100.00;98816.94;5071560;28;19928;-85
2021/09/14 12:51:37;;;;;;;;;;;;;;;19.52;100.00;98816.66;5058899;28;19924;-84
2021/09/14 12:54:04;;;;;;;;;;;;;;;19.61;100.00;98820.13;5058835;28;19928;-85
2021/09/14 12:56:32;;;;;;;;;;;;;;;19.43;100.00;98823.19;5026632;28;19925;-85
2021/09/14 12:58:59;;;;;;;;;;;;;;;19.23;100.00;98814.59;5061917;28;19924;-84
2021/09/14 13:01:26;;;;;;;;;;;;;;;19.23;100.00;98822.28;5082801;28;19931;-84
2021/09/14 13:03:53;;;;;;;;;;;;;;;19.27;100.00;98820.84;5041882;28;19925;-84
2021/09/14 13:06:20;;;;;;;;;;;;;;;19.02;100.00;98824.22;5054182;28;19977;-84
2021/09/14 13:08:47;;;;;;;;;;;;;;;19.16;100.00;98809.28;5056943;28;19924;-84
2021/09/14 13:11:14;;;;;;;;;;;;;;;19.22;100.00;98818.66;5052227;28;20263;-85
2021/09/14 13:16:27;;;;;;;;;;;;;;;19.36;100.00;98819.97;5069536;28;19924;-85
2021/09/14 13:18:54;;;;;;;;;;;;;;;19.35;100.00;98822.03;5043979;28;20007;-85
2021/09/14 13:21:22;;;;;;;;;;;;;;;19.37;100.00;98819.47;5058652;28;19931;-85
2021/09/14 13:23:49;;;;;;;;;;;;;;;19.28;100.00;98816.75;5057541;28;19930;-88
2021/09/14 13:26:17;;;;;;;;;;;;;;;19.27;100.00;98808.72;5074966;28;19924;-81
2021/09/14 13:28:45;;;;;;;;;;;;;;;19.28;100.00;98816.75;5077238;28;19974;-80
2021/09/14 13:31:12;;;;;;;;;;;;;;;19.15;100.00;98804.91;5095522;28;19928;-80
2021/09/14 13:33:40;;;;;;;;;;;;;;;19.12;100.00;98808.72;5057597;28;19974;-82
2021/09/14 13:36:07;;;;;;;;;;;;;;;19.26;100.00;98799.44;5093816;28;19928;-82
2021/09/14 13:38:34;;;;;;;;;;;;;;;19.26;100.00;98807.94;5094477;28;19947;-82
2021/09/14 13:41:04;;;;;;;;;;;;;;;19.35;100.00;98798.59;5077173;28;20023;-81
2021/09/14 13:43:37;;;;;;;;;;;;;;;19.41;100.00;98797.41;5067236;28;20443;-86
2021/09/14 13:46:13;;;;;;;;;;;;;;;19.54;100.00;98800.72;5057245;28;19925;-86
2021/09/14 13:48:52;;;;;;;;;;;;;;;19.76;100.00;98796.66;5057028;28;19931;-86